Time;durP1;ratioP1;P1;durP2;ratioP2;P2;SDS_P1;SDS_P2;PMS_P1;PMS_P2;Temp;Humidity;BMP_temperature;BMP_pressure;BME280_temperature;BME280_humidity;BME280_pressure;Samples;Min_cycle;Max_cycle;Signal;HPM_P1;HPM_P2
2024/01/01 00:01:22;;;;;;;43.95;22.85;;;9.10;99.90;;;9.17;100.00;99433.97;4805246;29;20051;-76
2024/01/01 00:03:50;;;;;;;38.17;23.10;;;9.00;99.90;;;9.16;100.00;99419.03;4805090;29;20390;-80
2024/01/01 00:06:19;;;;;;;39.95;23.00;;;9.00;99.90;;;9.16;100.00;99428.72;4819409;29;20055;-74
2024/01/01 00:08:47;;;;;;;41.58;23.08;;;9.00;99.90;;;9.17;100.00;99439.25;4803818;29;20062;-81
2024/01/01 00:11:17;;;;;;;36.45;20.27;;;9.00;99.90;;;9.13;100.00;99432.31;4804740;29;20071;-79
2024/01/01 00:13:45;;;;;;;32.67;18.70;;;9.00;99.90;;;9.04;100.00;99419.28;4804864;29;20108;-80
2024/01/01 00:16:15;;;;;;;41.40;19.98;;;8.90;99.90;;;9.07;100.00;99438.59;4803984;29;20051;-73
2024/01/01 00:18:44;;;;;;;32.05;18.58;;;8.90;99.90;;;9.07;100.00;99432.44;4804814;29;20141;-86
2024/01/01 00:21:12;;;;;;;34.78;17.42;;;8.90;99.90;;;9.09;100.00;99428.00;4807284;29;20187;-85
2024/01/01 00:23:41;;;;;;;28.63;16.55;;;8.90;99.90;;;9.10;100.00;99432.34;4804902;29;20054;-79
2024/01/01 00:26:09;;;;;;;35.45;17.02;;;8.90;99.90;;;9.12;100.00;99409.47;4804571;29;20111;-82
2024/01/01 00:28:39;;;;;;;24.02;13.85;;;8.90;99.90;;;9.09;100.00;99438.53;4819113;29;20082;-84
2024/01/01 00:31:08;;;;;;;26.33;14.05;;;8.90;99.90;;;9.12;100.00;99427.06;4804058;29;20059;-84
2024/01/01 00:33:36;;;;;;;28.63;13.55;;;8.90;99.90;;;9.09;100.00;99435.91;4818879;29;20412;-82
2024/01/01 00:36:06;;;;;;;27.05;12.77;;;8.90;99.90;;;8.98;100.00;99448.47;4820797;29;20051;-76
2024/01/01 00:38:34;;;;;;;22.55;12.02;;;8.80;99.90;;;8.84;100.00;99413.59;4805528;29;20408;-89
2024/01/01 00:41:02;;;;;;;26.13;13.23;;;8.80;99.90;;;8.97;100.00;99421.22;4806767;29;20065;-85
2024/01/01 00:43:32;;;;;;;32.28;13.73;;;8.80;99.90;;;8.97;100.00;99437.03;4808111;29;20121;-80
2024/01/01 00:46:02;;;;;;;28.90;13.73;;;8.80;99.90;;;8.96;100.00;99459.03;4803238;29;20059;-81
2024/01/01 00:48:30;;;;;;;28.23;12.93;;;8.80;99.90;;;8.95;100.00;99423.03;4803256;29;20159;-78
2024/01/01 00:50:59;;;;;;;20.63;12.23;;;8.80;99.90;;;8.87;100.00;99403.84;4804250;29;20107;-75
2024/01/01 00:53:29;;;;;;;26.60;13.02;;;8.80;99.90;;;8.98;100.00;99399.22;4804580;29;20096;-81
2024/01/01 00:55:57;;;;;;;29.17;13.02;;;8.80;99.90;;;9.04;100.00;99414.03;4804136;29;20043;-76
2024/01/01 00:58:26;;;;;;;26.42;11.45;;;8.90;99.90;;;8.41;100.00;99315.25;4804484;29;20042;-81
2024/01/01 01:00:56;;;;;;;30.73;11.80;;;8.90;99.90;;;9.02;100.00;99431.66;4806236;29;20089;-82
2024/01/01 01:03:26;;;;;;;26.98;11.57;;;8.90;99.90;;;9.20;100.00;99430.38;4822858;29;20059;-85
2024/01/01 01:05:54;;;;;;;27.73;11.20;;;9.00;99.90;;;9.15;100.00;99435.78;4804604;29;20061;-74
2024/01/01 01:08:26;;;;;;;28.50;10.77;;;9.00;99.90;;;9.21;100.00;99443.56;4802934;29;20071;-78
2024/01/01 01:10:54;;;;;;;29.55;10.23;;;9.00;99.90;;;9.27;100.00;99435.50;4803995;29;20055;-81
2024/01/01 01:13:23;;;;;;;22.70;9.43;;;9.00;99.90;;;9.23;100.00;99407.47;4804197;29;20122;-80
2024/01/01 01:15:51;;;;;;;27.95;10.15;;;9.10;99.90;;;9.31;100.00;99444.22;4817975;29;20050;-77
2024/01/01 01:18:20;;;;;;;25.92;9.90;;;9.10;99.90;;;9.38;100.00;99443.19;4804975;29;20436;-77
2024/01/01 01:20:50;;;;;;;22.10;9.88;;;9.20;99.90;;;9.40;100.00;99441.38;4803782;29;20416;-76
2024/01/01 01:23:18;;;;;;;33.95;9.60;;;9.20;99.90;;;9.43;100.00;99465.91;4818001;29;20137;-81
2024/01/01 01:25:47;;;;;;;29.80;10.00;;;9.20;99.90;;;9.43;100.00;99478.22;4817995;29;20054;-75
2024/01/01 01:28:22;;;;;;;28.13;10.32;;;9.20;99.90;;;9.33;100.00;99482.84;4803949;29;20078;-75
2024/01/01 01:30:51;;;;;;;25.23;9.75;;;9.10;99.90;;;9.38;100.00;99472.19;4804021;29;20092;-73
2024/01/01 01:33:20;;;;;;;27.10;9.88;;;9.10;99.90;;;9.41;100.00;99496.75;4803532;29;20055;-74
2024/01/01 01:35:50;;;;;;;24.15;8.90;;;9.20;99.90;;;9.37;100.00;99494.22;4817619;29;20105;-77
2024/01/01 01:38:18;;;;;;;19.90;8.32;;;9.10;99.90;;;9.19;100.00;99462.94;4803821;29;20047;-73
2024/01/01 01:40:47;;;;;;;21.48;7.65;;;9.10;99.90;;;9.16;100.00;99484.97;4803903;29;20420;-68
2024/01/01 01:43:23;;;;;;;22.08;8.15;;;9.00;99.90;;;9.09;100.00;99459.66;4803868;29;20051;-70
2024/01/01 01:45:52;;;;;;;26.75;8.65;;;8.90;99.90;;;9.14;100.00;99481.50;4817851;29;20065;-82
2024/01/01 01:48:22;;;;;;;28.15;8.90;;;8.90;99.90;;;9.17;100.00;99475.31;4803895;29;20043;-70
2024/01/01 01:50:52;;;;;;;24.08;8.30;;;8.90;99.90;;;9.07;100.00;99493.97;4803631;29;20078;-70
2024/01/01 01:53:23;;;;;;;21.95;7.63;;;8.90;99.90;;;9.05;100.00;99498.41;4817731;29;20058;-70
2024/01/01 01:55:57;;;;;;;24.13;7.90;;;8.90;99.90;;;9.18;100.00;99499.00;4803831;29;20062;-70
2024/01/01 01:58:26;;;;;;;24.42;9.07;;;8.90;99.90;;;9.16;100.00;99505.19;4805709;29;20061;-70
2024/01/01 02:00:55;;;;;;;29.80;8.95;;;9.00;99.90;;;9.21;100.00;99493.69;4820818;29;20053;-70
2024/01/01 02:03:23;;;;;;;26.13;8.57;;;9.00;99.90;;;9.20;100.00;99481.38;4806744;29;20103;-70
2024/01/01 02:05:54;;;;;;;19.02;8.43;;;9.00;99.90;;;9.22;100.00;99476.94;4806760;29;20055;-69
2024/01/01 02:08:24;;;;;;;30.98;8.70;;;9.00;99.90;;;9.23;100.00;99480.47;4806959;29;20121;-70
2024/01/01 02:10:53;;;;;;;26.25;9.25;;;9.00;99.90;;;9.28;100.00;99494.41;4820638;29;20165;-70
2024/01/01 02:13:24;;;;;;;27.30;8.90;;;9.00;99.90;;;9.23;100.00;99478.69;4820663;29;20062;-70
2024/01/01 02:15:53;;;;;;;28.60;8.77;;;9.10;99.90;;;9.24;100.00;99496.25;4806786;29;20154;-69
2024/01/01 02:18:22;;;;;;;22.42;8.20;;;9.10;99.90;;;8.54;100.00;99364.13;4806882;29;20059;-70
2024/01/01 02:20:51;;;;;;;24.58;8.50;;;9.00;99.90;;;9.27;100.00;99490.03;4806442;29;20154;-69
2024/01/01 02:23:21;;;;;;;23.35;8.30;;;9.10;99.90;;;9.32;100.00;99496.97;4806809;29;20081;-70
2024/01/01 02:25:50;;;;;;;30.23;8.73;;;9.10;99.90;;;9.37;100.00;99495.06;4806635;29;20401;-69
2024/01/01 02:28:19;;;;;;;26.65;8.18;;;9.10;99.90;;;9.34;100.00;99500.44;4806520;29;20111;-69
2024/01/01 02:30:47;;;;;;;30.75;8.82;;;9.10;99.90;;;9.19;100.00;99498.13;4820471;29;20050;-70
2024/01/01 02:33:16;;;;;;;29.83;8.25;;;9.20;99.90;;;9.39;100.00;99481.88;4806301;29;20059;-69
2024/01/01 02:35:45;;;;;;;26.52;7.50;;;9.20;99.90;;;9.40;100.00;99494.16;4806711;29;20050;-69
2024/01/01 02:38:13;;;;;;;25.65;7.80;;;9.20;99.90;;;9.47;100.00;99491.34;4820435;29;20047;-69
2024/01/01 02:40:44;;;;;;;32.58;8.80;;;9.20;99.90;;;9.49;100.00;99480.75;4806322;29;20051;-69
2024/01/01 02:43:12;;;;;;;31.17;8.18;;;9.30;99.90;;;9.45;100.00;99497.53;4820426;29;20493;-69
2024/01/01 02:45:41;;;;;;;29.67;8.85;;;9.20;99.90;;;9.49;100.00;99522.97;4806306;29;20059;-69
2024/01/01 02:48:09;;;;;;;30.13;8.95;;;9.30;99.90;;;9.42;100.00;99510.81;4820332;29;20066;-69
2024/01/01 02:50:38;;;;;;;36.72;9.05;;;9.20;99.90;;;9.45;100.00;99481.69;4806267;29;20561;-69
2024/01/01 02:53:07;;;;;;;36.35;9.15;;;9.30;99.90;;;9.48;100.00;99481.66;4806121;29;20050;-69
2024/01/01 02:55:35;;;;;;;34.28;9.40;;;9.30;99.90;;;9.52;100.00;99504.44;4819769;29;20051;-69
2024/01/01 02:58:06;;;;;;;35.50;9.38;;;9.30;99.90;;;9.53;100.00;99506.16;4806153;29;20053;-69
2024/01/01 03:00:35;;;;;;;31.38;8.80;;;9.30;99.90;;;9.58;100.00;99486.69;4806096;29;20061;-69
2024/01/01 03:03:04;;;;;;;33.42;8.52;;;9.40;99.90;;;9.56;100.00;99522.78;4806308;29;20057;-69
2024/01/01 03:05:32;;;;;;;33.47;8.23;;;9.40;99.90;;;9.59;100.00;99503.38;4806512;29;20139;-69
2024/01/01 03:08:01;;;;;;;30.42;8.80;;;9.40;99.90;;;9.57;100.00;99505.19;4806493;29;20070;-69
2024/01/01 03:10:29;;;;;;;34.00;9.55;;;9.40;99.90;;;9.58;100.00;99504.31;4804475;29;20081;-69
2024/01/01 03:12:58;;;;;;;30.80;8.75;;;9.40;99.90;;;9.51;100.00;99516.75;4806313;29;20070;-69
2024/01/01 03:15:28;;;;;;;39.25;9.57;;;9.40;99.90;;;9.63;100.00;99502.41;4806144;29;20053;-69
2024/01/01 03:17:56;;;;;;;36.58;9.52;;;9.40;99.90;;;9.58;100.00;99523.63;4805131;29;20154;-69
2024/01/01 03:20:30;;;;;;;35.00;9.93;;;9.40;99.90;;;9.59;100.00;99520.09;4820032;29;20088;-69
2024/01/01 03:22:59;;;;;;;40.30;10.98;;;9.40;99.90;;;9.58;100.00;99509.59;4820197;29;20055;-70
2024/01/01 03:25:27;;;;;;;39.17;9.77;;;9.40;99.90;;;9.58;100.00;99534.19;4806144;29;20047;-69
2024/01/01 03:27:56;;;;;;;39.17;10.30;;;9.40;99.90;;;9.57;100.00;99539.50;4806126;29;20097;-69
2024/01/01 03:30:25;;;;;;;34.20;9.93;;;9.40;99.90;;;9.62;100.00;99537.66;4820120;29;20104;-69
2024/01/01 03:32:54;;;;;;;36.92;9.32;;;9.40;99.90;;;9.66;100.00;99529.59;4819723;29;20501;-69
2024/01/01 03:35:23;;;;;;;32.65;10.13;;;9.40;99.90;;;9.73;100.00;99541.78;4805899;29;20425;-69
2024/01/01 03:37:51;;;;;;;36.42;9.93;;;9.50;99.90;;;9.72;100.00;99539.16;4806061;29;20078;-69
2024/01/01 03:40:20;;;;;;;40.40;9.35;;;9.50;99.90;;;9.72;100.00;99550.59;4805971;29;20141;-69
2024/01/01 03:42:48;;;;;;;35.20;9.18;;;9.50;99.90;;;9.72;100.00;99540.03;4804685;29;20062;-70
2024/01/01 03:45:18;;;;;;;33.65;8.52;;;9.50;99.90;;;9.74;100.00;99546.16;4805614;29;20118;-69
2024/01/01 03:47:46;;;;;;;34.10;7.85;;;9.60;99.90;;;9.71;100.00;99537.44;4805872;29;20050;-69
2024/01/01 03:50:19;;;;;;;36.50;7.88;;;9.50;99.90;;;9.80;100.00;99556.59;4819657;29;20162;-69
2024/01/01 03:52:48;;;;;;;42.28;8.57;;;9.60;99.90;;;9.80;100.00;99553.94;4819821;29;20065;-69
2024/01/01 03:55:16;;;;;;;33.55;8.88;;;9.60;99.90;;;9.83;100.00;99553.00;4805724;29;20050;-69
2024/01/01 03:57:45;;;;;;;42.40;8.45;;;9.60;99.90;;;9.79;100.00;99551.34;4805508;29;20047;-69
2024/01/01 04:00:14;;;;;;;34.92;8.68;;;9.60;99.90;;;9.96;100.00;99565.03;4805611;29;20051;-69
2024/01/01 04:02:43;;;;;;;41.38;9.13;;;9.70;99.90;;;10.03;100.00;99559.56;4819613;29;20070;-69
2024/01/01 04:05:12;;;;;;;36.47;8.65;;;9.80;99.90;;;10.01;100.00;99577.22;4805594;29;20201;-69
2024/01/01 04:07:42;;;;;;;30.60;8.35;;;9.70;99.90;;;10.06;100.00;99578.88;4819535;29;20219;-69
2024/01/01 04:10:10;;;;;;;36.58;8.02;;;9.80;99.90;;;10.06;100.00;99563.03;4805509;29;20047;-69
2024/01/01 04:12:39;;;;;;;29.75;7.63;;;9.80;99.90;;;10.13;100.00;99578.75;4819456;29;20070;-69
2024/01/01 04:15:08;;;;;;;32.20;7.55;;;9.90;99.90;;;10.07;100.00;99570.03;4805328;29;20134;-68
2024/01/01 04:17:36;;;;;;;31.23;7.90;;;9.90;99.90;;;10.13;100.00;99586.66;4805054;29;20039;-69
2024/01/01 04:20:10;;;;;;;27.23;6.97;;;9.90;99.90;;;10.17;100.00;99585.69;4805238;29;20499;-69
2024/01/01 04:22:41;;;;;;;29.02;8.60;;;9.90;99.90;;;10.24;100.00;99592.56;4804051;29;20059;-69
2024/01/01 04:25:10;;;;;;;;;;;10.00;99.90;;;10.32;100.00;99587.09;4805489;29;20082;-69
2024/01/01 04:27:39;;;;;;;34.60;8.73;;;10.10;99.90;;;10.35;100.00;99581.75;4803991;29;19929;-69
2024/01/01 04:30:10;;;;;;;38.38;8.30;;;10.10;99.90;;;10.36;100.00;99591.41;4804952;29;20107;-69
2024/01/01 04:32:38;;;;;;;40.85;8.98;;;10.20;99.90;;;10.32;100.00;99584.44;4805221;29;20059;-69
2024/01/01 04:35:07;;;;;;;32.40;8.38;;;10.10;99.90;;;10.32;100.00;99595.91;4805373;29;20085;-69
2024/01/01 04:37:36;;;;;;;37.97;8.55;;;10.10;99.90;;;10.28;100.00;99599.50;4819158;29;20490;-69
2024/01/01 04:40:08;;;;;;;33.38;7.50;;;10.10;99.90;;;10.23;100.00;99600.53;4805062;29;20057;-69
2024/01/01 04:42:36;;;;;;;31.60;7.28;;;10.00;99.90;;;10.38;100.00;99601.03;4804737;29;20051;-69
2024/01/01 04:45:06;;;;;;;28.10;7.47;;;10.10;99.90;;;10.39;100.00;99612.47;4804727;29;20512;-69
2024/01/01 04:47:34;;;;;;;28.02;7.18;;;10.10;99.90;;;10.33;100.00;99608.22;4804968;29;20059;-69
2024/01/01 04:50:03;;;;;;;22.73;6.50;;;10.10;99.90;;;9.54;100.00;99469.16;4804812;29;20089;-69
2024/01/01 04:52:31;;;;;;;28.33;6.78;;;10.10;99.90;;;10.26;100.00;99609.25;4804739;29;20057;-69
2024/01/01 04:54:59;;;;;;;30.42;7.50;;;10.10;99.90;;;10.22;100.00;99610.22;4804883;29;20109;-69
2024/01/01 04:57:29;;;;;;;23.48;6.80;;;10.00;99.90;;;10.24;100.00;99623.41;4804822;29;20425;-69
2024/01/01 04:59:57;;;;;;;25.77;7.87;;;10.00;99.90;;;10.35;100.00;99616.97;4804924;29;20494;-69
2024/01/01 05:02:26;;;;;;;22.40;7.43;;;10.10;99.90;;;10.26;100.00;99632.19;4818463;29;20062;-69
2024/01/01 05:04:54;;;;;;;25.63;7.05;;;10.00;99.90;;;9.81;100.00;99550.38;4804593;29;20559;-69
2024/01/01 05:07:22;;;;;;;26.00;6.53;;;10.10;99.90;;;10.30;100.00;99624.13;4804555;29;20439;-70
2024/01/01 05:09:51;;;;;;;28.45;7.20;;;10.10;99.90;;;10.23;99.72;99624.31;4804762;29;20409;-70
2024/01/01 05:12:19;;;;;;;29.83;7.20;;;10.00;99.90;;;10.36;99.32;99628.41;4804768;29;20062;-69
2024/01/01 05:14:49;;;;;;;28.80;7.05;;;10.10;99.90;;;10.40;99.09;99625.66;4804501;29;20413;-69
2024/01/01 05:17:20;;;;;;;34.00;6.95;;;10.20;99.90;;;10.36;98.82;99637.22;4804523;29;20050;-70
2024/01/01 05:19:50;;;;;;;23.10;6.78;;;10.20;99.90;;;10.39;98.71;99644.19;4804445;29;20043;-70
2024/01/01 05:22:19;;;;;;;19.23;5.68;;;10.20;99.90;;;10.44;98.32;99644.94;4804940;29;20047;-70
2024/01/01 05:24:47;;;;;;;24.02;6.85;;;10.20;99.90;;;10.44;97.91;99640.53;4818636;29;20042;-70
2024/01/01 05:27:17;;;;;;;27.55;7.20;;;10.20;99.90;;;10.50;97.99;99643.03;4804252;29;20554;-69
2024/01/01 05:29:45;;;;;;;25.38;7.10;;;10.30;99.90;;;10.31;97.72;99617.09;4804604;29;20547;-70
2024/01/01 05:32:15;;;;;;;25.92;7.03;;;10.20;99.90;;;10.42;98.29;99662.63;4805067;29;20085;-70
2024/01/01 05:34:44;;;;;;;25.88;7.25;;;10.20;99.90;;;10.20;99.95;99634.97;4807818;29;20475;-70
2024/01/01 05:37:12;;;;;;;29.65;7.40;;;10.20;99.90;;;10.38;100.00;99661.81;4807857;29;20035;-70
2024/01/01 05:39:41;;;;;;;26.10;6.32;;;10.20;99.90;;;10.35;100.00;99661.91;4821854;29;20055;-70
2024/01/01 05:42:09;;;;;;;28.65;7.05;;;10.20;99.90;;;10.34;100.00;99657.50;4807782;29;20108;-70
2024/01/01 05:44:37;;;;;;;28.92;6.68;;;10.10;99.90;;;9.65;100.00;99543.72;4808006;29;20412;-70
2024/01/01 05:47:06;;;;;;;26.13;6.35;;;10.10;99.90;;;10.28;100.00;99656.81;4807968;29;20124;-70
2024/01/01 05:49:36;;;;;;;23.30;6.65;;;10.10;99.90;;;10.36;100.00;99670.69;4807596;29;20043;-70
2024/01/01 05:52:05;;;;;;;31.55;7.28;;;10.10;99.90;;;10.41;100.00;99679.41;4807646;29;20134;-70
2024/01/01 05:54:33;;;;;;;23.80;6.72;;;10.20;99.90;;;10.38;100.00;99667.13;4807632;29;20054;-70
2024/01/01 05:57:01;;;;;;;25.98;7.18;;;10.20;99.90;;;10.29;100.00;99651.47;4807578;29;20070;-70
2024/01/01 05:59:30;;;;;;;23.92;6.32;;;10.20;99.90;;;10.44;100.00;99689.88;4807515;29;20047;-70
2024/01/01 06:01:58;;;;;;;19.95;6.57;;;10.20;99.90;;;10.42;100.00;99686.41;4807426;29;20139;-70
2024/01/01 06:04:27;;;;;;;19.73;5.95;;;10.20;99.90;;;10.32;100.00;99683.09;4807370;29;20086;-71
2024/01/01 06:06:56;;;;;;;27.05;6.43;;;10.10;99.90;;;10.38;99.81;99690.91;4807384;29;20129;-70
2024/01/01 06:09:25;;;;;;;27.37;7.27;;;10.20;99.90;;;10.39;99.82;99699.72;4807405;29;20047;-70
2024/01/01 06:11:53;;;;;;;26.77;6.75;;;10.20;99.90;;;10.39;99.94;99705.00;4807286;29;20345;-70
2024/01/01 06:14:21;;;;;;;21.67;6.15;;;10.20;99.90;;;10.37;99.78;99704.16;4807501;29;20060;-70
2024/01/01 06:16:50;;;;;;;25.67;7.45;;;10.20;99.90;;;10.45;99.42;99718.91;4807190;29;20051;-70
2024/01/01 06:19:18;;;;;;;25.55;7.07;;;10.20;99.90;;;10.40;99.37;99696.16;4807078;29;20043;-70
2024/01/01 06:21:47;;;;;;;27.30;6.25;;;10.30;99.90;;;10.54;99.04;99723.16;4807092;29;20108;-70
2024/01/01 06:24:17;;;;;;;23.85;6.10;;;10.30;99.90;;;10.25;98.94;99707.06;4807255;29;20405;-70
2024/01/01 06:26:45;;;;;;;24.77;6.15;;;10.20;99.90;;;10.36;99.25;99737.63;4807110;29;20225;-70
2024/01/01 06:29:13;;;;;;;17.30;5.60;;;10.20;99.90;;;10.19;100.00;99736.25;4806981;29;20051;-70
2024/01/01 06:31:42;;;;;;;18.70;5.40;;;10.00;99.90;;;10.16;100.00;99749.53;4806920;29;20634;-70
2024/01/01 06:34:10;;;;;;;26.15;6.85;;;9.90;99.90;;;10.15;100.00;99739.84;4805722;29;20142;-70
2024/01/01 06:36:39;;;;;;;18.55;5.93;;;9.90;99.90;;;10.17;100.00;99749.50;4806856;29;20043;-70
2024/01/01 06:39:08;;;;;;;21.33;5.88;;;10.00;99.90;;;10.18;100.00;99776.81;4807081;29;20055;-70
2024/01/01 06:41:37;;;;;;;24.02;6.18;;;10.00;99.90;;;10.10;100.00;99762.88;4807029;29;20125;-70
2024/01/01 06:44:06;;;;;;;22.13;6.10;;;9.90;99.90;;;10.17;100.00;99767.13;4805813;29;20073;-70
2024/01/01 06:46:34;;;;;;;21.90;6.32;;;9.90;99.90;;;10.22;100.00;99775.84;4806660;29;20047;-70
2024/01/01 06:49:03;;;;;;;20.77;5.72;;;10.00;99.90;;;10.30;99.14;99773.91;4806710;29;20046;-71
2024/01/01 06:51:33;;;;;;;22.20;6.70;;;10.00;99.90;;;10.32;97.86;99775.59;4820716;29;20413;-70
2024/01/01 06:54:01;;;;;;;27.27;6.70;;;10.10;99.90;;;10.43;96.88;99786.81;4806615;29;20081;-70
2024/01/01 06:56:29;;;;;;;23.08;5.70;;;10.20;99.90;;;10.22;96.14;99768.75;4806512;29;20081;-71
2024/01/01 06:58:59;;;;;;;14.43;5.22;;;10.10;99.90;;;10.28;95.68;99778.38;4806527;29;20047;-70
2024/01/01 07:01:28;;;;;;;19.05;6.00;;;10.10;99.90;;;10.41;95.76;99804.50;4806426;29;20078;-70
2024/01/01 07:03:57;;;;;;;22.25;6.05;;;10.20;99.90;;;10.37;94.81;99786.09;4806574;29;20486;-70
2024/01/01 07:06:25;;;;;;;22.70;6.43;;;10.20;99.90;;;10.41;93.58;99808.91;4806550;29;20562;-70
2024/01/01 07:08:53;;;;;;;20.02;5.97;;;10.20;99.90;;;10.51;94.03;99818.41;4806843;29;20554;-70
2024/01/01 07:11:22;;;;;;;18.50;6.18;;;10.30;99.90;;;10.48;94.80;99819.31;4806311;29;20058;-70
2024/01/01 07:13:50;;;;;;;17.55;5.75;;;10.30;99.90;;;10.53;93.58;99817.44;4820237;29;20103;-70
2024/01/01 07:16:20;;;;;;;15.10;5.63;;;10.30;99.90;;;10.54;91.82;99818.31;4806212;29;20051;-70
2024/01/01 07:18:48;;;;;;;23.40;5.73;;;10.30;99.90;;;10.46;91.29;99809.69;4820256;29;20565;-70
2024/01/01 07:21:17;;;;;;;17.30;5.25;;;10.30;99.90;;;10.43;91.53;99820.31;4820180;29;20123;-70
2024/01/01 07:23:45;;;;;;;18.85;5.40;;;10.30;99.90;;;10.55;91.20;99835.94;4805915;29;20111;-70
2024/01/01 07:26:14;;;;;;;19.05;5.72;;;10.30;99.90;;;10.61;90.26;99836.66;4806044;29;20050;-70
2024/01/01 07:28:42;;;;;;;20.38;6.05;;;10.40;99.90;;;10.64;89.88;99848.97;4806029;29;20039;-71
2024/01/01 07:31:11;;;;;;;20.83;6.43;;;10.40;99.90;;;10.70;89.34;99848.84;4806102;29;20051;-70
2024/01/01 07:33:41;;;;;;;12.80;5.10;;;10.50;99.90;;;10.62;88.90;99853.41;4804608;29;20069;-70
2024/01/01 07:36:12;;;;;;;16.10;6.60;;;10.50;99.90;;;10.66;88.08;99860.38;4806062;29;20406;-70
2024/01/01 07:38:41;;;;;;;20.42;5.47;;;10.50;99.90;;;10.67;87.92;99865.63;4805934;29;20095;-71
2024/01/01 07:41:10;;;;;;;19.77;6.07;;;10.50;99.90;;;10.44;87.12;99854.66;4805763;29;20112;-70
2024/01/01 07:43:39;;;;;;;20.13;5.95;;;10.50;99.90;;;10.69;86.64;99881.44;4806077;29;20130;-70
2024/01/01 07:46:10;;;;;;;20.83;6.03;;;10.50;99.90;;;10.65;87.29;99890.34;4805910;29;20541;-70
2024/01/01 07:48:39;;;;;;;18.48;5.07;;;10.50;99.90;;;10.63;88.40;99889.50;4805891;29;20054;-69
2024/01/01 07:51:09;;;;;;;16.35;5.30;;;10.50;99.90;;;10.71;88.72;99882.28;4819876;29;20057;-71
2024/01/01 07:53:37;;;;;;;20.85;5.18;;;10.50;99.90;;;10.70;88.91;99894.63;4806051;29;20133;-71
2024/01/01 07:56:07;;;;;;;19.10;5.40;;;10.50;99.90;;;10.59;90.02;99898.41;4805118;29;20042;-70
2024/01/01 07:58:35;;;;;;;15.38;5.25;;;10.40;99.90;;;10.64;89.70;99901.84;4805483;29;20080;-71
2024/01/01 08:01:04;;;;;;;23.25;5.45;;;10.40;99.90;;;10.64;89.58;99901.84;4805478;29;20051;-71
2024/01/01 08:03:32;;;;;;;26.25;6.30;;;10.50;99.90;;;10.63;89.48;99916.81;4805205;29;20062;-70
2024/01/01 08:06:01;;;;;;;12.45;4.65;;;10.40;99.90;;;10.30;89.25;99900.78;4819575;29;20405;-70
2024/01/01 08:08:31;;;;;;;10.82;4.65;;;10.20;99.90;;;10.42;89.08;99905.78;4805322;29;20057;-70
2024/01/01 08:11:00;;;;;;;11.77;4.97;;;10.20;99.90;;;10.36;88.52;99917.38;4805310;29;20050;-70
2024/01/01 08:13:29;;;;;;;19.65;5.63;;;10.20;99.90;;;10.38;89.03;99886.50;4805165;29;20164;-70
2024/01/01 08:15:57;;;;;;;20.23;5.88;;;10.30;99.90;;;10.53;89.34;99922.34;4805157;29;20076;-71
2024/01/01 08:18:25;;;;;;;19.98;5.95;;;10.30;99.90;;;10.60;89.31;99932.78;4804046;29;20061;-70
2024/01/01 08:20:54;;;;;;;23.08;6.18;;;10.40;99.90;;;10.65;89.20;99937.94;4805108;29;20057;-70
2024/01/01 08:23:23;;;;;;;17.20;5.38;;;10.50;99.90;;;10.47;89.22;99957.69;4804950;29;20054;-70
2024/01/01 08:25:52;;;;;;;7.00;4.20;;;10.40;99.90;;;10.23;88.40;99965.19;4804981;29;20126;-70
2024/01/01 08:28:21;;;;;;;10.87;4.40;;;10.10;99.90;;;10.15;88.19;99957.41;4805018;29;20072;-70
2024/01/01 08:30:49;;;;;;;8.70;4.05;;;10.00;99.90;;;10.08;88.28;99966.31;4804953;29;20360;-70
2024/01/01 08:33:18;;;;;;;11.73;4.32;;;9.90;99.90;;;10.10;87.26;99963.66;4818957;29;20073;-70
2024/01/01 08:35:46;;;;;;;10.52;4.35;;;9.90;99.90;;;10.14;87.54;99966.25;4804842;29;20057;-70
2024/01/01 08:38:15;;;;;;;10.57;4.75;;;10.00;99.90;;;9.63;86.61;99853.50;4804788;29;20043;-70
2024/01/01 08:40:43;;;;;;;12.27;4.32;;;10.10;99.90;;;10.29;87.04;99973.00;4819098;29;20055;-71
2024/01/01 08:43:13;;;;;;;9.98;4.45;;;10.10;99.90;;;10.36;86.89;99977.28;4804750;29;20058;-70
2024/01/01 08:45:41;;;;;;;16.70;4.80;;;10.10;99.90;;;10.48;86.69;99991.16;4804673;29;20051;-70
2024/01/01 08:48:10;;;;;;;16.83;5.00;;;10.30;99.90;;;10.50;87.01;99992.00;4804688;29;20296;-72
2024/01/01 08:50:39;;;;;;;19.55;5.07;;;10.30;99.90;;;10.59;86.57;99990.94;4804785;29;20054;-74
2024/01/01 08:53:07;;;;;;;15.73;5.53;;;10.40;99.90;;;10.55;86.32;99999.88;4818984;29;20055;-74
2024/01/01 08:55:36;;;;;;;19.05;5.22;;;10.40;99.90;;;10.61;85.75;100005.88;4804641;29;20119;-75
2024/01/01 08:58:06;;;;;;;26.48;5.60;;;10.40;99.90;;;10.56;85.69;99998.94;4805091;29;20055;-74
2024/01/01 09:00:36;;;;;;;14.18;5.25;;;10.40;99.90;;;10.64;85.54;100010.25;4804944;29;20122;-72
2024/01/01 09:03:06;;;;;;;13.90;4.77;;;10.50;99.90;;;10.59;85.03;99996.22;4805140;29;20053;-76
2024/01/01 09:05:34;;;;;;;12.68;4.95;;;10.40;99.90;;;10.64;84.70;100004.97;4804992;29;20304;-73
2024/01/01 09:08:03;;;;;;;15.73;4.82;;;10.50;99.90;;;10.62;84.86;100014.69;4806082;29;20073;-72
2024/01/01 09:10:32;;;;;;;22.23;5.43;;;10.50;99.90;;;10.73;85.29;100020.66;4808411;29;20074;-71
2024/01/01 09:13:00;;;;;;;18.20;5.60;;;10.60;99.90;;;10.76;85.57;100024.13;4808511;29;20450;-71
2024/01/01 09:15:29;;;;;;;16.10;5.80;;;10.60;99.90;;;10.83;85.67;100032.81;4808163;29;20051;-77
2024/01/01 09:17:59;;;;;;;19.15;5.10;;;10.60;99.90;;;10.79;86.00;100033.78;4808429;29;20096;-68
2024/01/01 09:20:27;;;;;;;16.48;5.55;;;10.60;99.90;;;10.85;85.95;100025.72;4807222;29;20050;-69
2024/01/01 09:22:57;;;;;;;17.65;5.10;;;10.60;99.90;;;10.83;84.89;100035.47;4822180;29;20070;-69
2024/01/01 09:25:25;;;;;;;29.90;5.47;;;10.70;99.90;;;10.73;83.88;100031.25;4807890;29;20050;-69
2024/01/01 09:27:54;;;;;;;17.70;5.28;;;10.60;99.90;;;10.80;82.63;100052.25;4807914;29;20046;-72
2024/01/01 09:30:22;;;;;;;11.35;4.68;;;10.60;99.90;;;10.54;83.48;100043.94;4807922;29;20043;-71
2024/01/01 09:32:51;;;;;;;14.85;4.78;;;10.40;99.90;;;10.61;83.55;100055.25;4807984;29;20051;-73
2024/01/01 09:35:21;;;;;;;16.35;5.22;;;10.40;99.90;;;10.33;84.96;100028.44;4821969;29;20059;-72
2024/01/01 09:37:52;;;;;;;15.80;5.63;;;10.30;99.90;;;10.64;85.71;100064.03;4807852;29;20047;-71
2024/01/01 09:40:22;;;;;;;16.90;5.32;;;10.40;99.90;;;10.48;86.52;100024.66;4822006;29;20051;-68
2024/01/01 09:42:51;;;;;;;20.35;5.95;;;10.50;99.90;;;10.74;87.27;100065.59;4807989;29;20050;-70
2024/01/01 09:45:20;;;;;;;22.40;6.25;;;10.60;99.90;;;10.80;87.52;100080.50;4807922;29;20058;-69
2024/01/01 09:47:49;;;;;;;20.00;5.78;;;10.60;99.90;;;10.91;86.63;100078.53;4807710;29;20478;-71
2024/01/01 09:50:18;;;;;;;16.15;5.85;;;10.70;99.90;;;10.87;85.72;100076.84;4807697;29;20054;-69
2024/01/01 09:52:59;;;;;;;17.42;5.45;;;10.70;99.90;;;10.93;85.24;100082.00;4821695;29;20078;-69
2024/01/01 09:55:27;;;;;;;;;;;10.70;99.90;;;10.89;84.18;100082.97;4808271;29;20409;-72
2024/01/01 09:57:55;;;;;;;18.90;5.03;;;10.70;99.90;;;10.92;83.84;100088.19;4807727;29;20040;-68
2024/01/01 10:00:25;;;;;;;17.23;5.32;;;10.70;99.90;;;11.05;83.69;100126.78;4807489;29;20051;-73
2024/01/01 10:03:10;;;;;;;17.33;5.93;;;10.80;99.90;;;11.01;83.77;100108.31;4821538;29;20054;-73
2024/01/01 10:05:40;;;;;;;15.68;5.35;;;10.80;99.90;;;11.05;82.77;100108.25;4807327;29;20429;-72
2024/01/01 10:08:12;;;;;;;18.40;6.10;;;10.90;99.90;;;11.19;82.94;100110.63;4821300;29;20145;-71
2024/01/01 10:10:41;;;;;;;17.33;4.93;;;10.90;99.90;;;10.76;82.21;100033.84;4807314;29;20058;-73
2024/01/01 10:13:11;;;;;;;19.60;5.47;;;11.00;99.90;;;11.12;82.21;100112.53;4807209;29;20130;-73
2024/01/01 10:15:42;;;;;;;17.92;5.32;;;11.00;99.90;;;11.29;82.76;100128.06;4807179;29;20058;-72
2024/01/01 10:18:12;;;;;;;20.50;5.40;;;11.10;99.90;;;11.36;82.58;100122.63;4820925;29;20123;-74
2024/01/01 10:20:43;;;;;;;17.25;5.72;;;11.20;99.90;;;11.53;82.32;100143.50;4807066;29;20134;-71